createdAt,value
2022-09-26T00:01:31.238Z,2.30
2022-09-26T00:04:03.500Z,2.40
2022-09-26T00:06:30.282Z,2.40
2022-09-26T00:08:57.854Z,2.30
2022-09-26T00:11:30.502Z,2.30
2022-09-26T00:14:00.691Z,2.40
2022-09-26T00:16:27.723Z,2.20
2022-09-26T00:18:56.906Z,2.40
2022-09-26T00:21:24.514Z,2.20
2022-09-26T00:23:51.542Z,2.20
2022-09-26T00:26:20.017Z,2.50
2022-09-26T00:28:46.992Z,2.00
2022-09-26T00:31:17.102Z,1.90
2022-09-26T00:33:44.008Z,2.10
2022-09-26T00:36:11.018Z,2.20
2022-09-26T00:38:37.983Z,1.80
2022-09-26T00:41:07.106Z,2.00
2022-09-26T00:43:41.372Z,2.10
2022-09-26T00:46:35.678Z,2.00
2022-09-26T00:49:26.130Z,2.20
2022-09-26T00:52:08.793Z,1.80
2022-09-26T00:54:38.001Z,2.10
2022-09-26T00:57:10.966Z,1.90
2022-09-26T00:59:41.736Z,2.40
2022-09-26T01:02:09.403Z,2.10
2022-09-26T01:04:39.629Z,1.90
2022-09-26T01:07:12.440Z,2.20
2022-09-26T01:09:39.667Z,2.00
2022-09-26T01:12:08.977Z,1.80
2022-09-26T01:14:37.758Z,2.00
2022-09-26T01:17:05.440Z,1.80
2022-09-26T01:20:06.296Z,2.10
2022-09-26T01:23:02.262Z,1.70
2022-09-26T01:25:50.706Z,1.70
2022-09-26T01:28:32.178Z,1.80
2022-09-26T01:31:11.943Z,1.90
2022-09-26T01:34:07.764Z,2.10
2022-09-26T01:36:40.092Z,1.90
2022-09-26T01:39:25.200Z,2.10
2022-09-26T01:42:16.404Z,1.90
2022-09-26T01:44:58.290Z,1.80
2022-09-26T01:47:37.233Z,2.00
2022-09-26T01:50:16.403Z,1.70
2022-09-26T01:52:53.627Z,2.00
2022-09-26T01:55:37.425Z,2.00
2022-09-26T01:58:14.831Z,2.00
2022-09-26T02:00:43.581Z,2.10
2022-09-26T02:03:15.478Z,2.10
2022-09-26T02:06:10.376Z,2.00
2022-09-26T02:08:41.750Z,1.90
2022-09-26T02:11:19.107Z,2.10
2022-09-26T02:14:02.561Z,2.00
2022-09-26T02:16:37.498Z,2.10
2022-09-26T02:19:14.008Z,2.10
2022-09-26T02:21:42.548Z,1.90
2022-09-26T02:24:09.309Z,1.80
2022-09-26T02:26:36.292Z,1.80
2022-09-26T02:29:03.200Z,2.00
2022-09-26T02:31:35.408Z,1.90
2022-09-26T02:34:03.181Z,1.60
2022-09-26T02:36:34.420Z,1.80
2022-09-26T02:39:01.811Z,2.00
2022-09-26T02:41:49.741Z,2.00
2022-09-26T02:44:51.320Z,2.00
2022-09-26T02:47:36.564Z,1.90
2022-09-26T02:50:28.123Z,1.80
2022-09-26T02:53:11.573Z,2.10
2022-09-26T02:55:51.690Z,1.90
2022-09-26T02:58:47.434Z,1.80
2022-09-26T03:01:40.358Z,1.60
2022-09-26T03:04:30.073Z,1.80
2022-09-26T03:07:00.631Z,1.90
2022-09-26T03:09:30.246Z,1.90
2022-09-26T03:11:59.956Z,1.90
2022-09-26T03:14:29.534Z,1.90
2022-09-26T03:16:57.354Z,1.90
2022-09-26T03:19:31.003Z,1.90
2022-09-26T03:21:59.889Z,1.70
2022-09-26T03:24:26.850Z,1.80
2022-09-26T03:26:55.264Z,1.80
2022-09-26T03:29:23.024Z,1.70
2022-09-26T03:31:50.419Z,1.80
2022-09-26T03:34:17.516Z,1.70
2022-09-26T03:36:45.664Z,1.70
2022-09-26T03:39:12.976Z,1.70
2022-09-26T03:41:40.164Z,1.60
2022-09-26T03:44:07.309Z,1.50
2022-09-26T03:46:39.696Z,1.70
2022-09-26T03:49:06.911Z,1.60
2022-09-26T03:51:33.924Z,1.80
2022-09-26T03:54:00.464Z,1.70
2022-09-26T03:56:27.345Z,1.70
2022-09-26T03:58:54.253Z,1.60
2022-09-26T04:01:22.613Z,1.60
2022-09-26T04:03:51.346Z,2.00
2022-09-26T04:06:20.269Z,2.00
2022-09-26T04:08:49.997Z,1.60
2022-09-26T04:11:19.339Z,1.60
2022-09-26T04:13:51.830Z,1.70
2022-09-26T04:16:20.465Z,1.70
2022-09-26T04:18:47.706Z,1.60
2022-09-26T04:21:15.001Z,1.80
2022-09-26T04:23:43.386Z,1.70
2022-09-26T04:26:20.241Z,1.90
2022-09-26T04:28:50.979Z,2.00
2022-09-26T04:31:18.193Z,2.00
2022-09-26T04:33:45.265Z,1.70
2022-09-26T04:36:13.815Z,1.90
2022-09-26T04:38:41.022Z,1.70
2022-09-26T04:41:10.512Z,2.20
2022-09-26T04:43:37.718Z,2.20
2022-09-26T04:46:17.127Z,1.90
2022-09-26T04:48:48.255Z,1.70
2022-09-26T04:51:16.992Z,2.10
2022-09-26T04:53:43.994Z,2.10
2022-09-26T04:56:13.828Z,2.10
2022-09-26T04:58:42.088Z,2.00
2022-09-26T05:01:11.302Z,2.40
2022-09-26T05:03:38.251Z,2.30
2022-09-26T05:06:09.601Z,2.60
2022-09-26T05:08:37.430Z,2.80
2022-09-26T05:11:06.705Z,2.70
2022-09-26T05:13:33.919Z,2.60
2022-09-26T05:16:01.748Z,3.00
2022-09-26T05:18:29.748Z,2.60
2022-09-26T05:20:57.421Z,2.80
2022-09-26T05:23:45.432Z,2.90
2022-09-26T05:26:36.424Z,2.70
2022-09-26T05:29:08.348Z,2.80
2022-09-26T05:31:37.738Z,3.10
2022-09-26T05:34:13.007Z,2.70
2022-09-26T05:36:42.664Z,2.60
2022-09-26T05:39:29.763Z,2.50
2022-09-26T05:41:58.192Z,2.70
2022-09-26T05:44:24.953Z,2.70
2022-09-26T05:46:52.201Z,2.80
2022-09-26T05:49:19.177Z,2.60
2022-09-26T05:51:46.483Z,2.60
2022-09-26T05:54:13.533Z,2.40
2022-09-26T05:56:40.966Z,2.40
2022-09-26T05:59:08.132Z,2.40
2022-09-26T06:01:35.358Z,2.40
2022-09-26T06:04:02.953Z,2.20
2022-09-26T06:06:30.288Z,2.30
2022-09-26T06:08:57.157Z,2.50
2022-09-26T06:11:30.507Z,2.30
2022-09-26T06:14:00.604Z,2.20
2022-09-26T06:16:28.569Z,2.20
2022-09-26T06:18:58.612Z,2.00
2022-09-26T06:21:25.140Z,2.20
2022-09-26T06:23:52.220Z,2.40
2022-09-26T06:26:28.746Z,2.00
2022-09-26T06:28:58.073Z,2.60
2022-09-26T06:31:26.119Z,2.10
2022-09-26T06:33:56.084Z,1.80
2022-09-26T06:36:24.226Z,1.90
2022-09-26T06:38:51.397Z,1.80
2022-09-26T06:41:18.584Z,2.20
2022-09-26T06:43:45.881Z,1.80
2022-09-26T06:46:14.786Z,1.80
2022-09-26T06:48:42.150Z,1.60
2022-09-26T06:51:09.368Z,1.80
2022-09-26T06:53:36.062Z,1.90
2022-09-26T06:56:03.034Z,1.80
2022-09-26T06:58:30.168Z,2.10
2022-09-26T07:00:59.367Z,1.90
2022-09-26T07:03:26.626Z,2.20
2022-09-26T07:05:57.019Z,2.00
2022-09-26T07:08:43.359Z,2.60
2022-09-26T07:11:32.725Z,2.10
2022-09-26T07:14:00.180Z,2.20
2022-09-26T07:16:27.231Z,2.10
2022-09-26T07:18:54.962Z,1.90
2022-09-26T07:21:22.041Z,2.20
2022-09-26T07:23:51.521Z,2.50
2022-09-26T07:26:18.551Z,2.00
2022-09-26T07:28:46.940Z,2.10
2022-09-26T07:31:15.755Z,2.50
2022-09-26T07:33:42.565Z,2.30
2022-09-26T07:36:09.828Z,2.10
2022-09-26T07:38:36.576Z,2.30
2022-09-26T07:41:03.565Z,2.10
2022-09-26T07:44:04.559Z,2.10
2022-09-26T07:46:36.046Z,1.90
2022-09-26T07:49:21.273Z,2.10
2022-09-26T07:51:48.228Z,2.00
2022-09-26T07:54:15.416Z,2.10
2022-09-26T07:56:45.018Z,2.70
2022-09-26T07:59:12.548Z,2.60
2022-09-26T08:01:40.045Z,2.30
2022-09-26T08:04:07.023Z,2.30
2022-09-26T08:06:37.415Z,2.30
2022-09-26T08:09:04.637Z,2.50
2022-09-26T08:11:31.452Z,2.30
2022-09-26T08:13:58.384Z,2.40
2022-09-26T08:16:25.276Z,2.70
2022-09-26T08:18:53.886Z,2.60
2022-09-26T08:21:22.175Z,2.40
2022-09-26T08:23:49.074Z,2.30
2022-09-26T08:26:16.347Z,2.70
2022-09-26T08:28:43.961Z,2.20
2022-09-26T08:31:12.003Z,2.40
2022-09-26T08:33:39.057Z,2.40
2022-09-26T08:36:13.585Z,2.80
2022-09-26T08:38:40.372Z,2.10
2022-09-26T08:41:33.544Z,2.30
2022-09-26T08:44:30.054Z,2.70
2022-09-26T08:47:02.803Z,2.50
2022-09-26T08:49:42.244Z,2.50
2022-09-26T08:52:36.276Z,2.40
2022-09-26T08:55:12.236Z,2.30
2022-09-26T08:57:46.042Z,2.30
2022-09-26T09:00:19.014Z,2.20
2022-09-26T09:02:49.163Z,2.30
2022-09-26T09:05:25.863Z,2.40
2022-09-26T09:07:56.874Z,2.00
2022-09-26T09:10:39.814Z,1.90
2022-09-26T09:13:15.334Z,1.70
2022-09-26T09:16:00.571Z,2.30
2022-09-26T09:18:39.603Z,2.00
2022-09-26T09:21:24.638Z,2.20
2022-09-26T09:24:12.858Z,2.10
2022-09-26T09:30:00.030Z,1.60
2022-09-26T09:32:45.376Z,1.90
2022-09-26T09:35:19.339Z,1.80
2022-09-26T09:37:52.302Z,1.80
2022-09-26T09:40:41.396Z,1.60
2022-09-26T09:43:26.935Z,1.50
2022-09-26T09:46:01.780Z,1.60
2022-09-26T09:48:30.936Z,1.40
2022-09-26T09:51:21.773Z,1.40
2022-09-26T09:54:00.659Z,1.40
2022-09-26T09:56:49.517Z,1.20
2022-09-26T09:59:40.629Z,1.40
2022-09-26T10:02:10.584Z,1.40
2022-09-26T10:04:56.063Z,1.40
2022-09-26T10:07:22.700Z,1.30
2022-09-26T10:09:51.695Z,1.50
2022-09-26T10:12:23.317Z,1.50
2022-09-26T10:14:58.632Z,1.30
2022-09-26T10:17:25.511Z,1.50
2022-09-26T10:19:52.172Z,1.50
2022-09-26T10:22:29.184Z,1.30
2022-09-26T10:25:25.584Z,1.50
2022-09-26T10:27:57.092Z,1.40
2022-09-26T10:30:34.013Z,1.30
2022-09-26T10:33:03.300Z,1.30
2022-09-26T10:35:46.276Z,1.30
2022-09-26T10:38:29.297Z,1.40
2022-09-26T10:41:01.917Z,1.60
2022-09-26T10:43:33.892Z,1.30
2022-09-26T10:46:17.468Z,1.40
2022-09-26T10:48:48.824Z,1.40
2022-09-26T10:51:32.535Z,1.60
2022-09-26T10:54:12.071Z,1.40
2022-09-26T10:56:43.839Z,1.30
2022-09-26T10:59:17.173Z,1.20
2022-09-26T11:01:49.048Z,1.40
2022-09-26T11:04:45.300Z,1.30
2022-09-26T11:07:25.130Z,1.20
2022-09-26T11:09:59.945Z,1.40
2022-09-26T11:12:32.314Z,1.40
2022-09-26T11:15:05.072Z,1.10
2022-09-26T11:17:47.857Z,1.90
2022-09-26T11:20:32.864Z,1.20
2022-09-26T11:23:15.834Z,1.10
2022-09-26T11:26:08.555Z,1.30
2022-09-26T11:28:47.152Z,1.10
2022-09-26T11:31:40.954Z,1.30
2022-09-26T11:37:26.823Z,1.10
2022-09-26T11:40:45.665Z,1.20
2022-09-26T11:43:44.838Z,1.10
2022-09-26T11:46:21.158Z,1.40
2022-09-26T11:48:50.686Z,1.30
2022-09-26T11:52:02.427Z,1.30
2022-09-26T11:54:49.927Z,1.10
2022-09-26T11:57:32.028Z,1.40
2022-09-26T11:59:58.486Z,1.20
2022-09-26T12:02:32.492Z,1.50
2022-09-26T12:05:16.125Z,1.20
2022-09-26T12:07:58.949Z,1.30
2022-09-26T12:10:53.324Z,1.10
2022-09-26T12:13:54.724Z,1.10
2022-09-26T12:16:35.901Z,1.30
2022-09-26T12:19:20.413Z,1.20
2022-09-26T12:22:30.415Z,1.30
2022-09-26T12:25:17.910Z,1.50
2022-09-26T12:27:59.316Z,1.40
2022-09-26T12:30:40.353Z,1.30
2022-09-26T12:33:39.629Z,1.40
2022-09-26T12:36:21.470Z,1.40
2022-09-26T12:39:06.757Z,1.40
2022-09-26T12:42:14.421Z,1.40
2022-09-26T12:44:41.246Z,1.40
2022-09-26T12:47:13.781Z,1.40
2022-09-26T12:50:08.367Z,1.20
2022-09-26T12:52:55.050Z,1.10
2022-09-26T12:55:47.085Z,1.40
2022-09-26T12:58:46.295Z,1.20
2022-09-26T13:01:45.070Z,1.20
2022-09-26T13:04:49.072Z,1.40
2022-09-26T13:07:42.776Z,1.10
2022-09-26T13:10:17.336Z,1.40
2022-09-26T13:13:02.527Z,1.10
2022-09-26T13:15:39.968Z,1.20
2022-09-26T13:18:35.462Z,1.10
2022-09-26T13:21:20.070Z,1.20
2022-09-26T13:24:13.820Z,1.30
2022-09-26T13:26:46.763Z,1.00
2022-09-26T13:29:22.051Z,1.00
2022-09-26T13:32:10.207Z,1.10
2022-09-26T13:34:47.198Z,1.30
2022-09-26T13:37:34.259Z,1.20
2022-09-26T13:40:21.540Z,1.40
2022-09-26T13:43:12.166Z,1.60
2022-09-26T13:45:49.044Z,1.40
2022-09-26T13:48:20.755Z,1.20
2022-09-26T13:50:55.952Z,1.40
2022-09-26T13:53:51.792Z,1.00
2022-09-26T13:56:34.889Z,1.10
2022-09-26T13:59:19.667Z,1.00
2022-09-26T14:02:18.249Z,1.00
2022-09-26T14:04:46.287Z,1.00
2022-09-26T14:07:36.820Z,1.10
2022-09-26T14:10:07.829Z,1.10
2022-09-26T14:12:53.107Z,1.00
2022-09-26T14:15:34.336Z,1.00
2022-09-26T14:18:28.063Z,1.00
2022-09-26T14:21:09.885Z,1.00
2022-09-26T14:23:47.938Z,1.10
2022-09-26T14:26:28.027Z,1.00
2022-09-26T14:28:56.495Z,1.10
2022-09-26T14:31:26.408Z,1.10
2022-09-26T14:34:11.571Z,1.30
2022-09-26T14:36:38.827Z,1.30
2022-09-26T14:39:05.840Z,1.20
2022-09-26T14:41:35.782Z,1.10
2022-09-26T14:44:05.568Z,1.10
2022-09-26T14:46:35.508Z,1.30
2022-09-26T14:49:05.966Z,1.10
2022-09-26T14:51:42.614Z,1.20
2022-09-26T14:54:24.143Z,1.10
2022-09-26T14:57:00.591Z,1.00
2022-09-26T14:59:36.387Z,1.00
2022-09-26T15:02:18.020Z,1.00
2022-09-26T15:04:58.404Z,1.20
2022-09-26T15:07:26.385Z,1.10
2022-09-26T15:10:04.801Z,1.00
2022-09-26T15:12:40.070Z,1.10
2022-09-26T15:15:34.384Z,1.20
2022-09-26T15:18:24.230Z,1.10
2022-09-26T15:21:00.461Z,1.20
2022-09-26T15:23:33.418Z,1.20
2022-09-26T15:26:08.252Z,1.00
2022-09-26T15:28:37.696Z,1.30
2022-09-26T15:31:21.162Z,1.10
2022-09-26T15:34:12.425Z,1.30
2022-09-26T15:36:40.929Z,0.90
2022-09-26T15:39:45.633Z,1.20
2022-09-26T15:42:33.649Z,1.10
2022-09-26T15:45:02.418Z,0.90
2022-09-26T15:47:28.941Z,1.20
2022-09-26T15:50:20.821Z,1.00
2022-09-26T15:52:55.205Z,1.40
2022-09-26T15:55:28.279Z,1.10
2022-09-26T15:57:59.239Z,1.10
2022-09-26T16:00:30.077Z,1.00
2022-09-26T16:02:56.881Z,1.00
2022-09-26T16:05:23.940Z,1.10
2022-09-26T16:07:52.870Z,0.90
2022-09-26T16:10:26.150Z,1.00
2022-09-26T16:12:53.141Z,1.00
2022-09-26T16:15:27.583Z,0.90
2022-09-26T16:17:57.476Z,0.80
2022-09-26T16:20:28.277Z,0.90
2022-09-26T16:23:05.111Z,0.90
2022-09-26T16:25:53.439Z,1.10
2022-09-26T16:28:37.980Z,1.10
2022-09-26T16:31:23.075Z,0.90
2022-09-26T16:33:52.867Z,0.80
2022-09-26T16:36:28.726Z,1.00
2022-09-26T16:38:58.161Z,0.80
2022-09-26T16:41:59.290Z,0.60
2022-09-26T16:44:36.396Z,0.80
2022-09-26T16:47:07.315Z,0.80
2022-09-26T16:49:47.158Z,0.70
2022-09-26T16:52:30.729Z,0.80
2022-09-26T16:54:59.477Z,1.20
2022-09-26T16:57:35.168Z,0.90
2022-09-26T17:00:26.357Z,0.80
2022-09-26T17:02:53.053Z,0.90
2022-09-26T17:05:21.498Z,1.10
2022-09-26T17:07:49.713Z,0.90
2022-09-26T17:10:18.247Z,1.10
2022-09-26T17:12:50.628Z,1.00
2022-09-26T17:15:28.558Z,1.00
2022-09-26T17:17:56.838Z,0.90
2022-09-26T17:20:24.201Z,0.80
2022-09-26T17:22:51.071Z,0.80
2022-09-26T17:25:18.836Z,1.00
2022-09-26T17:27:47.692Z,1.10
2022-09-26T17:30:19.282Z,1.00
2022-09-26T17:32:49.760Z,1.20
2022-09-26T17:35:27.947Z,0.80
2022-09-26T17:37:55.432Z,1.10
2022-09-26T17:40:26.333Z,0.90
2022-09-26T17:42:55.632Z,1.20
2022-09-26T17:45:35.206Z,1.10
2022-09-26T17:48:20.743Z,1.20
2022-09-26T17:50:48.186Z,1.10
2022-09-26T17:53:23.972Z,1.20
2022-09-26T17:55:52.842Z,1.20
2022-09-26T17:58:20.135Z,1.20
2022-09-26T18:00:53.225Z,1.30
2022-09-26T18:03:25.721Z,1.20
2022-09-26T18:05:53.385Z,1.10
2022-09-26T18:08:30.743Z,0.90
2022-09-26T18:11:00.829Z,1.20
2022-09-26T18:13:31.527Z,1.00
2022-09-26T18:16:01.838Z,0.90
2022-09-26T18:18:30.728Z,1.00
2022-09-26T18:21:02.838Z,1.10
2022-09-26T18:23:52.385Z,1.30
2022-09-26T18:26:33.899Z,1.10
2022-09-26T18:29:06.271Z,0.90
2022-09-26T18:31:36.730Z,1.20
2022-09-26T18:34:03.362Z,1.00
2022-09-26T18:36:33.230Z,0.80
2022-09-26T18:39:00.537Z,1.20
2022-09-26T18:41:29.061Z,1.10
2022-09-26T18:44:00.209Z,1.00
2022-09-26T18:46:29.151Z,1.00
2022-09-26T18:48:58.340Z,1.00
2022-09-26T18:51:26.360Z,1.10
2022-09-26T18:53:53.641Z,1.00
2022-09-26T18:56:39.277Z,0.90
2022-09-26T18:59:10.196Z,1.00
2022-09-26T19:01:42.099Z,0.90
2022-09-26T19:04:23.209Z,1.00
2022-09-26T19:06:59.112Z,1.00
2022-09-26T19:09:30.892Z,0.90
2022-09-26T19:11:57.773Z,1.10
2022-09-26T19:14:26.779Z,1.20
2022-09-26T19:16:54.665Z,1.20
2022-09-26T19:19:22.267Z,1.20
2022-09-26T19:21:55.183Z,1.10
2022-09-26T19:24:22.533Z,1.10
2022-09-26T19:26:54.079Z,1.00
2022-09-26T19:29:43.822Z,1.10
2022-09-26T19:32:22.241Z,1.10
2022-09-26T19:34:55.726Z,1.20
2022-09-26T19:37:22.462Z,1.00
2022-09-26T19:39:49.131Z,1.10
2022-09-26T19:42:16.007Z,0.90
2022-09-26T19:44:43.162Z,1.10
2022-09-26T19:47:16.223Z,1.10
2022-09-26T19:49:43.130Z,1.10
2022-09-26T19:52:15.586Z,0.90
2022-09-26T19:54:44.759Z,1.10
2022-09-26T19:57:23.002Z,0.90
2022-09-26T19:59:50.442Z,1.00
2022-09-26T20:02:20.882Z,1.10
2022-09-26T20:04:48.301Z,1.10
2022-09-26T20:07:17.491Z,1.20
2022-09-26T20:09:45.282Z,1.20
2022-09-26T20:12:13.135Z,1.50
2022-09-26T20:14:40.659Z,1.30
2022-09-26T20:17:27.022Z,1.30
2022-09-26T20:19:58.635Z,1.30
2022-09-26T20:22:26.143Z,1.30
2022-09-26T20:24:56.994Z,1.10
2022-09-26T20:27:26.807Z,1.00
2022-09-26T20:30:12.246Z,1.20
2022-09-26T20:32:40.675Z,1.30
2022-09-26T20:35:10.729Z,1.10
2022-09-26T20:37:40.380Z,1.20
2022-09-26T20:40:16.579Z,1.30
2022-09-26T20:42:46.548Z,1.70
2022-09-26T20:45:19.473Z,1.10
2022-09-26T20:47:46.466Z,1.20
2022-09-26T20:50:17.628Z,1.20
2022-09-26T20:52:44.307Z,1.30
2022-09-26T20:55:18.806Z,1.30
2022-09-26T20:57:46.054Z,1.40
2022-09-26T21:00:17.934Z,1.10
2022-09-26T21:02:47.070Z,1.20
2022-09-26T21:05:24.687Z,1.20
2022-09-26T21:07:52.426Z,1.40
2022-09-26T21:10:30.739Z,1.30
2022-09-26T21:12:59.077Z,1.10
2022-09-26T21:15:29.218Z,1.30
2022-09-26T21:17:56.245Z,1.30
2022-09-26T21:20:32.003Z,1.20
2022-09-26T21:23:01.378Z,1.20
2022-09-26T21:25:30.899Z,1.10
2022-09-26T21:28:01.451Z,1.30
2022-09-26T21:30:29.137Z,1.20
2022-09-26T21:32:59.910Z,1.40
2022-09-26T21:35:29.750Z,1.10
2022-09-26T21:37:58.694Z,1.30
2022-09-26T21:40:29.560Z,1.40
2022-09-26T21:43:03.817Z,1.50
2022-09-26T21:45:30.520Z,1.10
2022-09-26T21:47:57.954Z,1.40
2022-09-26T21:50:28.647Z,1.60
2022-09-26T21:53:05.833Z,1.20
2022-09-26T21:55:38.700Z,1.10
2022-09-26T21:58:12.914Z,1.50
2022-09-26T22:00:40.225Z,1.20
2022-09-26T22:03:07.334Z,1.40
2022-09-26T22:05:34.177Z,1.50
2022-09-26T22:08:01.793Z,1.40
2022-09-26T22:10:29.290Z,1.70
2022-09-26T22:12:56.189Z,1.40
2022-09-26T22:15:22.976Z,1.60
2022-09-26T22:17:49.823Z,1.30
2022-09-26T22:20:17.148Z,1.60
2022-09-26T22:22:44.161Z,1.50
2022-09-26T22:25:10.945Z,1.50
2022-09-26T22:27:38.258Z,1.40
2022-09-26T22:30:06.038Z,1.60
2022-09-26T22:32:33.138Z,1.60
2022-09-26T22:35:00.307Z,1.50
2022-09-26T22:37:27.196Z,1.60
2022-09-26T22:39:54.580Z,1.40
2022-09-26T22:42:21.381Z,1.30
2022-09-26T22:44:48.287Z,1.50
2022-09-26T22:47:15.023Z,1.30
2022-09-26T22:49:42.268Z,1.20
2022-09-26T22:52:08.828Z,1.20
2022-09-26T22:54:35.845Z,1.10
2022-09-26T22:57:02.909Z,1.20
2022-09-26T22:59:29.671Z,1.20
2022-09-26T23:01:57.215Z,1.20
2022-09-26T23:04:24.490Z,1.30
2022-09-26T23:06:51.288Z,1.00
2022-09-26T23:09:18.234Z,1.40
2022-09-26T23:11:44.853Z,1.30
2022-09-26T23:14:11.863Z,1.20
2022-09-26T23:16:38.624Z,1.20
2022-09-26T23:19:05.552Z,1.30
2022-09-26T23:21:32.590Z,1.20
2022-09-26T23:24:00.247Z,1.30
2022-09-26T23:26:30.174Z,1.20
2022-09-26T23:28:59.397Z,1.20
2022-09-26T23:31:28.021Z,1.20
2022-09-26T23:33:55.620Z,1.20
2022-09-26T23:36:22.837Z,1.10
2022-09-26T23:38:50.151Z,1.20
2022-09-26T23:41:17.127Z,1.20
2022-09-26T23:43:46.283Z,1.10
2022-09-26T23:46:13.255Z,1.10
2022-09-26T23:48:40.277Z,1.20
2022-09-26T23:51:10.532Z,1.00
2022-09-26T23:53:37.759Z,1.10
2022-09-26T23:56:12.472Z,0.90
2022-09-26T23:58:39.973Z,1.10
